Time;durP1;ratioP1;P1;durP2;ratioP2;P2;SDS_P1;SDS_P2;PMS_P1;PMS_P2;Temp;Humidity;BMP_temperature;BMP_pressure;BME280_temperature;BME280_humidity;BME280_pressure;Samples;Min_cycle;Max_cycle;Signal;HPM_P1;HPM_P2
2021/12/15 00:00:44;;;;;;;;;;;;;;;11.27;38.76;100677.34;4446117;32;34188;-77
2021/12/15 00:03:15;;;;;;;;;;;;;;;11.72;37.87;100678.94;4451292;32;33648;-77
2021/12/15 00:05:42;;;;;;;;;;;;;;;11.71;37.82;100677.19;4461802;32;33139;-76
2021/12/15 00:08:11;;;;;;;;;;;;;;;11.96;36.89;100665.78;4470399;32;32199;-79
2021/12/15 00:10:40;;;;;;;;;;;;;;;11.92;37.22;100666.09;4455967;32;32806;-79
2021/12/15 00:13:07;;;;;;;;;;;;;;;11.78;37.16;100659.78;4471295;32;33871;-81
2021/12/15 00:15:34;;;;;;;;;;;;;;;12.05;36.85;100667.84;4469299;32;34554;-78
2021/12/15 00:18:02;;;;;;;;;;;;;;;11.52;38.20;100664.13;4471135;32;32459;-77
2021/12/15 00:20:29;;;;;;;;;;;;;;;11.70;37.81;100662.06;4473885;32;33592;-76
2021/12/15 00:22:56;;;;;;;;;;;;;;;11.71;37.86;100658.44;4466199;32;34298;-76
2021/12/15 00:25:26;;;;;;;;;;;;;;;11.92;37.35;100661.56;4456785;32;34575;-75
2021/12/15 00:27:53;;;;;;;;;;;;;;;12.03;37.01;100659.03;4460780;32;33980;-76
2021/12/15 00:30:21;;;;;;;;;;;;;;;12.01;37.06;100652.94;4450410;32;33949;-77
2021/12/15 00:32:50;;;;;;;;;;;;;;;11.80;37.49;100660.50;4455501;32;33460;-74
2021/12/15 00:35:17;;;;;;;;;;;;;;;11.75;37.77;100665.34;4468071;32;34240;-75
2021/12/15 00:37:45;;;;;;;;;;;;;;;11.60;38.08;100669.00;4470993;32;31949;-75
2021/12/15 00:40:14;;;;;;;;;;;;;;;11.79;37.67;100663.31;4459544;32;34325;-74
2021/12/15 00:42:42;;;;;;;;;;;;;;;11.60;38.03;100669.84;4465827;32;34118;-77
2021/12/15 00:45:10;;;;;;;;;;;;;;;11.69;37.68;100670.25;4455561;32;35184;-77
2021/12/15 00:47:38;;;;;;;;;;;;;;;11.68;37.48;100677.41;4473122;32;33384;-77
2021/12/15 00:50:06;;;;;;;;;;;;;;;11.79;37.33;100682.09;4472012;32;34153;-76
2021/12/15 00:52:34;;;;;;;;;;;;;;;11.45;37.57;100683.38;4457993;32;34095;-77
2021/12/15 00:55:04;;;;;;;;;;;;;;;11.38;37.86;100680.22;4460061;32;34321;-77
2021/12/15 00:57:31;;;;;;;;;;;;;;;11.51;37.42;100678.50;4457124;32;32371;-78
2021/12/15 00:59:59;;;;;;;;;;;;;;;11.07;38.28;100687.50;4460717;32;33929;-76
2021/12/15 01:02:26;;;;;;;;;;;;;;;11.32;38.17;100684.16;4470197;32;32844;-77
2021/12/15 01:04:54;;;;;;;;;;;;;;;11.36;38.01;100685.69;4452473;32;34220;-76
2021/12/15 01:07:21;;;;;;;;;;;;;;;11.24;38.14;100697.19;4470214;32;31977;-76
2021/12/15 01:09:52;;;;;;;;;;;;;;;11.10;38.63;100691.81;4456309;32;34928;-77
2021/12/15 01:12:41;;;;;;;;;;;;;;;11.43;37.95;100696.91;4462942;32;34374;-76
2021/12/15 01:20:36;;;;;;;;;;;;;;;10.67;39.82;100697.13;4473043;32;33503;-76
2021/12/15 01:23:07;;;;;;;;;;;;;;;11.19;38.31;100701.97;4474132;32;32807;-76
2021/12/15 01:25:36;;;;;;;;;;;;;;;11.05;38.27;100692.09;4460860;32;33059;-76
2021/12/15 01:28:04;;;;;;;;;;;;;;;11.23;37.36;100698.13;4459081;32;33200;-77
2021/12/15 01:30:32;;;;;;;;;;;;;;;10.95;37.72;100699.00;4452185;32;33721;-77
2021/12/15 01:33:00;;;;;;;;;;;;;;;10.84;38.00;100698.75;4478056;32;33553;-77
2021/12/15 01:35:28;;;;;;;;;;;;;;;10.32;38.89;100696.53;4463908;32;34484;-77
2021/12/15 01:37:56;;;;;;;;;;;;;;;10.44;38.93;100694.00;4453107;32;33119;-75
2021/12/15 01:40:33;;;;;;;;;;;;;;;10.81;37.85;100691.78;4454644;32;34390;-77
2021/12/15 01:43:03;;;;;;;;;;;;;;;10.94;37.36;100683.84;4459901;32;34436;-75
2021/12/15 01:48:16;;;;;;;;;;;;;;;10.03;39.43;100693.69;4459922;32;33634;-79
2021/12/15 01:50:44;;;;;;;;;;;;;;;10.15;39.31;100697.47;4455737;32;33818;-76
2021/12/15 01:53:12;;;;;;;;;;;;;;;10.61;38.40;100694.81;4451766;32;34297;-77
2021/12/15 01:55:39;;;;;;;;;;;;;;;10.51;38.69;100694.50;4455896;32;35289;-78
2021/12/15 01:58:07;;;;;;;;;;;;;;;10.76;38.24;100696.56;4449178;32;31817;-76
2021/12/15 02:00:41;;;;;;;;;;;;;;;10.71;38.45;100699.50;4454067;32;35168;-77
2021/12/15 02:03:09;;;;;;;;;;;;;;;10.75;38.35;100696.62;4454859;32;35832;-77
2021/12/15 02:05:36;;;;;;;;;;;;;;;10.76;38.26;100699.25;4461464;32;34953;-78
2021/12/15 02:08:04;;;;;;;;;;;;;;;10.59;38.38;100688.66;4449247;32;33462;-78
2021/12/15 02:10:35;;;;;;;;;;;;;;;11.09;37.43;100688.28;4455726;32;33100;-78
2021/12/15 02:13:04;;;;;;;;;;;;;;;10.45;38.75;100695.72;4455594;32;36384;-80
2021/12/15 02:15:33;;;;;;;;;;;;;;;10.85;38.01;100692.44;4455147;32;35147;-78
2021/12/15 02:18:01;;;;;;;;;;;;;;;9.91;39.86;100687.22;4453300;32;34510;-78
2021/12/15 02:20:35;;;;;;;;;;;;;;;10.45;38.95;100689.50;4452215;32;34190;-77
2021/12/15 02:23:03;;;;;;;;;;;;;;;10.33;38.98;100688.41;4451372;32;34177;-79
2021/12/15 02:25:31;;;;;;;;;;;;;;;10.21;39.46;100687.28;4455179;32;34383;-76
2021/12/15 02:28:01;;;;;;;;;;;;;;;10.18;39.32;100678.59;4456090;32;33349;-77
2021/12/15 02:38:45;;;;;;;;;;;;;;;10.07;39.94;100692.56;4452651;32;33064;-77
2021/12/15 02:41:20;;;;;;;;;;;;;;;10.34;39.33;100697.31;4447987;32;33689;-77
2021/12/15 02:43:48;;;;;;;;;;;;;;;10.60;38.74;100698.44;4460135;32;34412;-80
2021/12/15 02:46:16;;;;;;;;;;;;;;;10.62;38.56;100699.19;4469360;32;35138;-77
2021/12/15 02:48:43;;;;;;;;;;;;;;;10.36;39.27;100700.75;4456498;32;33445;-81
2021/12/15 02:51:12;;;;;;;;;;;;;;;9.99;40.37;100694.81;4452118;32;34862;-81
2021/12/15 02:53:39;;;;;;;;;;;;;;;10.46;39.39;100692.09;4461003;32;34146;-79
2021/12/15 02:56:07;;;;;;;;;;;;;;;10.33;39.32;100687.53;4454206;32;33404;-77
2021/12/15 02:58:37;;;;;;;;;;;;;;;9.72;40.78;100697.22;4459282;32;32980;-80
2021/12/15 03:01:14;;;;;;;;;;;;;;;10.35;39.39;100699.88;4450468;32;34221;-77
2021/12/15 03:04:09;;;;;;;;;;;;;;;10.58;38.99;100685.13;4473252;32;34450;-80
2021/12/15 03:06:55;;;;;;;;;;;;;;;10.58;38.93;100687.81;4458670;32;33848;-79
2021/12/15 03:15:18;;;;;;;;;;;;;;;10.51;39.40;100688.28;4451707;32;34216;-79
2021/12/15 03:17:42;;;;;;;;;;;;;;;10.93;38.21;100683.00;4453990;32;33100;-77
2021/12/15 03:20:11;;;;;;;;;;;;;;;10.98;38.18;100666.66;4454911;32;34602;-80
2021/12/15 03:22:38;;;;;;;;;;;;;;;10.41;39.37;100667.41;4456587;32;32720;-76
2021/12/15 03:25:06;;;;;;;;;;;;;;;10.81;38.51;100672.16;4459374;32;34203;-77
2021/12/15 03:33:35;;;;;;;;;;;;;;;10.68;38.53;100658.66;4463571;32;32747;-81
2021/12/15 03:36:07;;;;;;;;;;;;;;;11.44;37.04;100653.03;4466056;32;32647;-79
2021/12/15 03:38:35;;;;;;;;;;;;;;;11.17;38.13;100655.62;4473763;32;34644;-76
2021/12/15 03:41:03;;;;;;;;;;;;;;;10.72;39.14;100665.56;4458376;32;33559;-77
2021/12/15 03:43:31;;;;;;;;;;;;;;;11.23;37.86;100665.09;4459080;32;33952;-77
2021/12/15 03:46:00;;;;;;;;;;;;;;;11.24;37.92;100664.19;4447423;32;32879;-75
2021/12/15 03:48:29;;;;;;;;;;;;;;;11.34;37.45;100658.13;4460551;32;35549;-76
2021/12/15 03:50:58;;;;;;;;;;;;;;;11.60;36.75;100669.84;4458234;32;33526;-77
2021/12/15 03:53:26;;;;;;;;;;;;;;;11.53;36.88;100671.22;4448426;32;34175;-76
2021/12/15 03:55:53;;;;;;;;;;;;;;;10.36;39.65;100679.34;4458037;32;34250;-77
2021/12/15 03:58:24;;;;;;;;;;;;;;;11.23;37.92;100683.88;4475380;32;34466;-78
2021/12/15 04:00:57;;;;;;;;;;;;;;;11.19;38.03;100680.53;4456431;32;34586;-75
2021/12/15 04:03:29;;;;;;;;;;;;;;;11.22;37.93;100680.34;4465365;32;34437;-77
2021/12/15 04:05:58;;;;;;;;;;;;;;;11.63;36.87;100668.81;4467979;32;35976;-79
2021/12/15 04:08:26;;;;;;;;;;;;;;;11.78;36.13;100666.94;4474217;32;35516;-79
2021/12/15 04:10:53;;;;;;;;;;;;;;;11.66;36.62;100666.78;4469287;32;33274;-77
2021/12/15 04:13:21;;;;;;;;;;;;;;;11.82;35.78;100672.00;4455498;32;35214;-76
2021/12/15 04:16:04;;;;;;;;;;;;;;;11.72;36.28;100684.31;4471549;32;34410;-77
2021/12/15 04:18:32;;;;;;;;;;;;;;;11.70;36.18;100686.22;4460226;32;34451;-77
2021/12/15 04:21:00;;;;;;;;;;;;;;;11.49;36.60;100692.94;4473593;32;33022;-77
2021/12/15 04:23:27;;;;;;;;;;;;;;;11.63;36.09;100687.56;4464273;32;35111;-77
2021/12/15 04:25:55;;;;;;;;;;;;;;;11.66;36.03;100684.69;4478632;32;34411;-78
2021/12/15 04:28:28;;;;;;;;;;;;;;;11.50;36.55;100686.66;4460314;32;35386;-75
2021/12/15 04:30:56;;;;;;;;;;;;;;;11.55;36.82;100679.16;4453762;32;33012;-77
2021/12/15 04:33:29;;;;;;;;;;;;;;;11.49;36.90;100683.06;4466945;32;32481;-76
2021/12/15 04:35:57;;;;;;;;;;;;;;;11.64;36.41;100691.97;4470541;32;34465;-78
2021/12/15 04:38:25;;;;;;;;;;;;;;;11.54;36.14;100691.69;4473327;32;34452;-77
2021/12/15 04:40:54;;;;;;;;;;;;;;;11.46;36.44;100698.50;4440299;32;31960;-77
2021/12/15 04:43:21;;;;;;;;;;;;;;;11.43;36.59;100702.25;4473705;32;35220;-77
2021/12/15 04:45:49;;;;;;;;;;;;;;;11.36;36.62;100703.56;4454490;32;35128;-76
2021/12/15 04:48:16;;;;;;;;;;;;;;;11.21;37.04;100701.87;4458897;32;34434;-76
2021/12/15 04:50:43;;;;;;;;;;;;;;;11.15;37.30;100708.47;4462455;32;34487;-76
2021/12/15 04:53:11;;;;;;;;;;;;;;;11.35;36.98;100705.41;4475276;32;34219;-76
2021/12/15 04:55:38;;;;;;;;;;;;;;;11.35;36.87;100704.53;4461273;32;34425;-79
2021/12/15 04:58:07;;;;;;;;;;;;;;;11.57;36.31;100706.75;4460349;32;35753;-76
2021/12/15 05:00:36;;;;;;;;;;;;;;;10.89;38.06;100710.94;4474386;32;33327;-77
2021/12/15 05:03:04;;;;;;;;;;;;;;;11.03;37.84;100717.25;4462069;32;35112;-76
2021/12/15 05:05:33;;;;;;;;;;;;;;;11.35;36.90;100702.72;4470017;32;34385;-76
2021/12/15 05:08:00;;;;;;;;;;;;;;;11.19;37.51;100718.03;4458830;32;33984;-79
2021/12/15 05:10:28;;;;;;;;;;;;;;;11.49;36.89;100711.72;4458542;32;34483;-75
2021/12/15 05:12:57;;;;;;;;;;;;;;;11.58;36.41;100716.50;4457624;32;35094;-75
2021/12/15 05:15:25;;;;;;;;;;;;;;;11.48;36.87;100728.75;4454868;32;34121;-75
2021/12/15 05:17:53;;;;;;;;;;;;;;;11.47;37.06;100724.38;4452524;32;34519;-79
2021/12/15 05:20:22;;;;;;;;;;;;;;;11.63;36.33;100734.03;4458270;32;33555;-80
2021/12/15 05:22:50;;;;;;;;;;;;;;;11.59;36.88;100739.69;4465096;32;34317;-76
2021/12/15 05:25:18;;;;;;;;;;;;;;;11.59;36.75;100737.88;4460398;32;33821;-77
2021/12/15 05:27:46;;;;;;;;;;;;;;;11.41;37.24;100733.66;4473578;32;35247;-78
2021/12/15 05:30:15;;;;;;;;;;;;;;;11.58;36.68;100733.44;4460858;32;33324;-80
2021/12/15 05:32:43;;;;;;;;;;;;;;;11.71;36.45;100735.34;4457810;32;34283;-79
2021/12/15 05:35:15;;;;;;;;;;;;;;;11.22;37.59;100747.31;4460516;32;33834;-80
2021/12/15 05:37:42;;;;;;;;;;;;;;;11.33;37.36;100746.66;4469873;32;34338;-79
2021/12/15 05:40:10;;;;;;;;;;;;;;;11.17;37.46;100752.09;4474965;32;34525;-77
2021/12/15 05:42:37;;;;;;;;;;;;;;;11.02;37.99;100753.06;4461584;32;34186;-77
2021/12/15 05:45:06;;;;;;;;;;;;;;;10.77;38.43;100745.63;4457494;32;34277;-81
2021/12/15 05:47:33;;;;;;;;;;;;;;;10.75;38.74;100756.41;4455165;32;34450;-77
2021/12/15 05:50:01;;;;;;;;;;;;;;;11.11;38.07;100755.19;4451612;32;33749;-79
2021/12/15 05:52:30;;;;;;;;;;;;;;;11.31;37.25;100765.53;4458138;32;34931;-77
2021/12/15 05:54:58;;;;;;;;;;;;;;;11.26;37.00;100770.28;4456897;32;34461;-77
2021/12/15 05:57:26;;;;;;;;;;;;;;;10.84;38.21;100768.41;4456447;32;34574;-79
2021/12/15 05:59:54;;;;;;;;;;;;;;;10.41;39.43;100771.78;4448877;32;33361;-75
2021/12/15 06:02:21;;;;;;;;;;;;;;;10.56;39.09;100778.06;4456162;32;33657;-76
2021/12/15 06:04:48;;;;;;;;;;;;;;;10.82;38.81;100775.66;4452596;32;34331;-75
2021/12/15 06:07:16;;;;;;;;;;;;;;;11.37;37.32;100777.69;4452644;32;32510;-75
2021/12/15 06:09:43;;;;;;;;;;;;;;;11.51;37.12;100787.56;4456085;32;33495;-75
2021/12/15 06:12:11;;;;;;;;;;;;;;;11.25;37.57;100789.16;4456469;32;34214;-75
2021/12/15 06:14:38;;;;;;;;;;;;;;;11.15;37.98;100789.72;4456713;32;35285;-75
2021/12/15 06:17:07;;;;;;;;;;;;;;;11.48;37.07;100802.00;4458173;32;35319;-75
2021/12/15 06:19:35;;;;;;;;;;;;;;;10.88;37.66;100811.00;4448498;32;34505;-75
2021/12/15 06:22:03;;;;;;;;;;;;;;;11.36;37.26;100809.00;4453317;32;35166;-76
2021/12/15 06:24:31;;;;;;;;;;;;;;;11.51;36.67;100812.53;4453434;32;34410;-75
2021/12/15 06:27:05;;;;;;;;;;;;;;;11.55;36.75;100816.75;4455955;32;34986;-76
2021/12/15 06:29:33;;;;;;;;;;;;;;;11.50;36.65;100818.00;4459887;32;34130;-76
2021/12/15 06:32:01;;;;;;;;;;;;;;;11.18;37.60;100812.78;4453306;32;35156;-77
2021/12/15 06:34:28;;;;;;;;;;;;;;;11.26;37.27;100812.31;4449458;32;33861;-76
2021/12/15 06:36:57;;;;;;;;;;;;;;;11.09;37.55;100816.03;4456690;32;32831;-75
2021/12/15 06:39:24;;;;;;;;;;;;;;;11.34;37.24;100813.59;4446066;32;33622;-76
2021/12/15 06:41:51;;;;;;;;;;;;;;;11.60;36.39;100816.47;4449734;32;35152;-78
2021/12/15 06:44:19;;;;;;;;;;;;;;;11.52;36.74;100822.28;4458864;32;34243;-78
2021/12/15 07:00:22;;;;;;;;;;;;;;;12.58;34.73;100813.78;4470385;32;33816;-77
2021/12/15 07:02:51;;;;;;;;;;;;;;;11.92;36.21;100829.72;4472386;32;34252;-75
2021/12/15 07:05:19;;;;;;;;;;;;;;;12.42;35.32;100833.66;4460851;32;34433;-76
2021/12/15 07:07:46;;;;;;;;;;;;;;;12.45;35.13;100837.00;4459535;32;33157;-76
2021/12/15 07:10:15;;;;;;;;;;;;;;;12.86;34.05;100844.16;4476155;32;34359;-75
2021/12/15 07:12:42;;;;;;;;;;;;;;;12.86;34.24;100835.25;4467587;32;32858;-76
2021/12/15 07:15:10;;;;;;;;;;;;;;;12.54;34.70;100849.84;4460703;32;34212;-76
2021/12/15 07:17:39;;;;;;;;;;;;;;;12.64;34.71;100841.19;4464713;32;34519;-76
2021/12/15 07:20:30;;;;;;;;;;;;;;;12.27;35.68;100836.38;4472593;32;32441;-76
2021/12/15 07:22:56;;;;;;;;;;;;;;;12.49;34.89;100843.06;4474384;32;32736;-77
2021/12/15 07:25:24;;;;;;;;;;;;;;;12.94;33.78;100841.84;4464208;32;34383;-76
2021/12/15 07:27:52;;;;;;;;;;;;;;;13.05;33.59;100850.00;4460734;32;35817;-76
2021/12/15 07:30:19;;;;;;;;;;;;;;;12.68;34.88;100851.63;4469549;32;34424;-76
2021/12/15 07:32:47;;;;;;;;;;;;;;;13.02;34.11;100841.31;4459730;32;34210;-77
2021/12/15 07:35:15;;;;;;;;;;;;;;;13.32;33.24;100845.59;4456604;32;35159;-77
2021/12/15 07:37:42;;;;;;;;;;;;;;;13.39;33.19;100839.69;4476096;32;34294;-76
2021/12/15 07:40:13;;;;;;;;;;;;;;;13.27;33.78;100837.84;4478080;32;33799;-76
2021/12/15 07:42:55;;;;;;;;;;;;;;;12.79;35.07;100851.75;4460768;32;34204;-76
2021/12/15 07:45:23;;;;;;;;;;;;;;;13.29;34.46;100849.38;4456757;32;35856;-79
2021/12/15 07:47:55;;;;;;;;;;;;;;;13.12;34.28;100847.78;4473407;32;33796;-75
2021/12/15 07:50:23;;;;;;;;;;;;;;;13.02;35.18;100852.06;4479388;32;33485;-76
2021/12/15 07:52:50;;;;;;;;;;;;;;;13.03;35.39;100851.97;4469000;32;34213;-75
2021/12/15 07:55:18;;;;;;;;;;;;;;;13.14;35.54;100856.59;4467631;32;36267;-76
2021/12/15 07:57:46;;;;;;;;;;;;;;;12.96;36.09;100858.69;4469521;32;34287;-76
2021/12/15 08:00:14;;;;;;;;;;;;;;;12.84;36.61;100862.22;4462489;32;33316;-75
2021/12/15 08:02:41;;;;;;;;;;;;;;;13.11;36.44;100870.25;4475426;32;34382;-77
2021/12/15 08:05:09;;;;;;;;;;;;;;;13.23;35.93;100869.44;4478156;32;35293;-73
2021/12/15 08:07:36;;;;;;;;;;;;;;;12.51;38.29;100882.25;4476157;32;35403;-72
2021/12/15 08:10:08;;;;;;;;;;;;;;;12.99;36.75;100876.44;4473546;32;33624;-70
2021/12/15 08:12:36;;;;;;;;;;;;;;;13.16;36.56;100884.25;4475103;32;35342;-70
2021/12/15 08:15:04;;;;;;;;;;;;;;;13.08;36.69;100883.03;4475876;32;35422;-73
2021/12/15 08:17:31;;;;;;;;;;;;;;;13.07;36.82;100881.31;4468317;32;35329;-71
2021/12/15 08:19:59;;;;;;;;;;;;;;;13.09;37.07;100890.97;4468794;32;32772;-70
2021/12/15 08:22:26;;;;;;;;;;;;;;;13.23;36.68;100890.94;4469303;32;33475;-79
2021/12/15 08:24:54;;;;;;;;;;;;;;;12.29;38.79;100898.88;4467421;32;34897;-75
2021/12/15 08:27:22;;;;;;;;;;;;;;;13.09;37.74;100899.03;4472464;32;35339;-76
2021/12/15 08:29:49;;;;;;;;;;;;;;;13.02;37.95;100903.12;4472950;32;33225;-75
2021/12/15 08:32:16;;;;;;;;;;;;;;;13.50;36.61;100908.88;4460935;32;33722;-75
2021/12/15 08:34:44;;;;;;;;;;;;;;;13.57;36.66;100915.53;4477705;32;34432;-75
2021/12/15 08:37:13;;;;;;;;;;;;;;;13.01;37.96;100922.91;4476432;32;33703;-75
2021/12/15 08:39:42;;;;;;;;;;;;;;;13.26;37.66;100925.72;4478924;32;34232;-77
2021/12/15 08:42:10;;;;;;;;;;;;;;;13.46;37.41;100927.03;4470149;32;34329;-75
2021/12/15 08:44:38;;;;;;;;;;;;;;;13.31;37.54;100922.69;4475643;32;34462;-75
2021/12/15 08:47:07;;;;;;;;;;;;;;;13.44;37.29;100926.28;4459741;32;35529;-74
2021/12/15 08:49:35;;;;;;;;;;;;;;;13.37;37.47;100924.97;4459389;32;33427;-75
2021/12/15 08:52:03;;;;;;;;;;;;;;;13.12;38.17;100931.09;4472281;32;33889;-75
2021/12/15 08:54:31;;;;;;;;;;;;;;;13.30;37.62;100929.06;4454016;32;35279;-78
2021/12/15 08:56:58;;;;;;;;;;;;;;;13.05;38.52;100921.72;4453746;32;34967;-75
2021/12/15 08:59:25;;;;;;;;;;;;;;;12.78;38.83;100925.28;4470621;32;32114;-75
2021/12/15 09:01:53;;;;;;;;;;;;;;;13.31;38.29;100920.00;4455284;32;33094;-75
2021/12/15 09:04:21;;;;;;;;;;;;;;;13.16;38.48;100921.87;4475564;32;34030;-75
2021/12/15 09:06:48;;;;;;;;;;;;;;;13.40;37.91;100927.47;4478437;32;34749;-75
2021/12/15 09:09:17;;;;;;;;;;;;;;;13.19;38.64;100921.69;4473963;32;32923;-75
2021/12/15 09:11:44;;;;;;;;;;;;;;;13.26;38.40;100914.09;4464390;32;32751;-78
2021/12/15 09:14:12;;;;;;;;;;;;;;;12.81;39.82;100917.03;4471318;32;35742;-75
2021/12/15 09:16:40;;;;;;;;;;;;;;;13.35;38.60;100923.34;4468308;32;35198;-75
2021/12/15 09:19:08;;;;;;;;;;;;;;;13.42;38.80;100913.94;4455765;32;31966;-76
2021/12/15 09:21:36;;;;;;;;;;;;;;;13.42;38.76;100916.62;4471963;32;34194;-75
2021/12/15 09:24:05;;;;;;;;;;;;;;;13.56;38.50;100915.66;4473919;32;33121;-74
2021/12/15 09:26:34;;;;;;;;;;;;;;;13.12;39.44;100909.59;4459073;32;35181;-72
2021/12/15 09:29:01;;;;;;;;;;;;;;;13.16;39.52;100907.56;4463578;32;33674;-74
2021/12/15 09:31:29;;;;;;;;;;;;;;;12.76;40.58;100913.75;4474696;32;34362;-73
2021/12/15 09:33:57;;;;;;;;;;;;;;;13.35;39.01;100915.28;4472091;32;34056;-71
2021/12/15 09:36:25;;;;;;;;;;;;;;;13.79;38.26;100911.37;4471420;32;34331;-73
2021/12/15 09:38:56;;;;;;;;;;;;;;;14.16;37.67;100913.22;4473508;32;34599;-79
2021/12/15 09:41:23;;;;;;;;;;;;;;;13.88;38.30;100905.34;4458152;32;33045;-80
2021/12/15 09:43:53;;;;;;;;;;;;;;;14.84;36.57;100906.50;4461523;32;35174;-78
2021/12/15 10:03:06;;;;;;;;;;;;;;;16.75;32.54;100898.78;4458476;32;32479;-77
2021/12/15 10:19:18;;;;;;;;;;;;;;;19.25;28.61;100895.88;4481085;32;35317;-78
2021/12/15 10:21:56;;;;;;;;;;;;;;;19.18;28.31;100904.72;4466851;32;33522;-79
2021/12/15 10:24:45;;;;;;;;;;;;;;;19.68;27.74;100910.88;4462787;32;32471;-78
2021/12/15 10:27:14;;;;;;;;;;;;;;;20.47;26.69;100901.47;4475433;32;34316;-79
2021/12/15 10:30:02;;;;;;;;;;;;;;;20.78;26.03;100909.34;4456557;32;35072;-80
2021/12/15 10:32:32;;;;;;;;;;;;;;;21.14;25.35;100905.66;4457489;32;33608;-78
2021/12/15 10:35:03;;;;;;;;;;;;;;;19.72;26.92;100903.31;4459830;32;34244;-77
2021/12/15 10:37:31;;;;;;;;;;;;;;;19.94;26.81;100904.81;4468222;32;34253;-79
2021/12/15 10:40:13;;;;;;;;;;;;;;;19.30;27.87;100901.72;4468185;32;34275;-77
2021/12/15 10:42:40;;;;;;;;;;;;;;;18.71;28.53;100909.91;4475192;32;31899;-77
2021/12/15 10:45:09;;;;;;;;;;;;;;;17.96;29.98;100914.72;4461828;32;35097;-80
2021/12/15 10:47:40;;;;;;;;;;;;;;;18.14;29.47;100909.56;4468576;32;34253;-78
2021/12/15 10:50:11;;;;;;;;;;;;;;;17.47;30.83;100910.81;4456128;32;35103;-81
2021/12/15 10:52:55;;;;;;;;;;;;;;;17.44;30.88;100911.94;4462430;32;33610;-77
2021/12/15 10:55:49;;;;;;;;;;;;;;;17.31;31.19;100908.56;4476228;32;33928;-76
2021/12/15 10:58:33;;;;;;;;;;;;;;;16.84;31.84;100912.53;4476690;32;34525;-79
2021/12/15 11:01:02;;;;;;;;;;;;;;;17.30;31.01;100906.81;4472977;32;33102;-78
2021/12/15 11:03:34;;;;;;;;;;;;;;;16.91;31.64;100905.63;4462192;32;31979;-79
2021/12/15 11:06:23;;;;;;;;;;;;;;;16.58;32.35;100914.63;4462030;32;34670;-76
2021/12/15 11:09:09;;;;;;;;;;;;;;;16.85;32.12;100909.69;4462241;32;34190;-78
2021/12/15 11:12:01;;;;;;;;;;;;;;;16.27;33.02;100914.41;4454744;32;35391;-77
2021/12/15 11:14:33;;;;;;;;;;;;;;;16.18;33.18;100912.44;4462622;32;33525;-77
2021/12/15 11:17:18;;;;;;;;;;;;;;;16.40;32.89;100911.56;4476630;32;35289;-76
2021/12/15 11:19:48;;;;;;;;;;;;;;;16.91;32.13;100909.19;4470522;32;34270;-77
2021/12/15 11:22:32;;;;;;;;;;;;;;;16.50;32.72;100913.44;4477130;32;34205;-76
2021/12/15 11:25:00;;;;;;;;;;;;;;;17.05;31.74;100902.63;4461071;32;33400;-77
2021/12/15 11:27:28;;;;;;;;;;;;;;;16.70;32.36;100900.12;4461623;32;34052;-77
2021/12/15 11:29:55;;;;;;;;;;;;;;;16.41;33.35;100900.66;4471320;32;35342;-77
2021/12/15 11:32:55;;;;;;;;;;;;;;;16.70;32.91;100906.38;4468161;32;34352;-76
2021/12/15 11:35:34;;;;;;;;;;;;;;;16.44;33.42;100904.97;4433690;32;33741;-77
2021/12/15 11:38:02;;;;;;;;;;;;;;;16.29;33.06;100909.75;4469228;32;34093;-76
2021/12/15 11:40:34;;;;;;;;;;;;;;;16.16;33.69;100906.31;4469721;32;32594;-77
2021/12/15 11:43:02;;;;;;;;;;;;;;;16.08;33.90;100906.91;4471447;32;35079;-77
2021/12/15 11:45:30;;;;;;;;;;;;;;;16.01;34.04;100911.94;4466209;32;32077;-80
2021/12/15 11:48:10;;;;;;;;;;;;;;;15.76;34.33;100906.75;4457024;32;34006;-78
2021/12/15 11:50:39;;;;;;;;;;;;;;;15.57;34.69;100904.59;4470844;32;33814;-77
2021/12/15 11:53:07;;;;;;;;;;;;;;;15.00;36.00;100902.66;4473242;32;34115;-77
2021/12/15 11:55:34;;;;;;;;;;;;;;;15.53;34.30;100903.09;4454431;32;33381;-74
2021/12/15 11:58:03;;;;;;;;;;;;;;;15.59;34.66;100895.38;4470123;32;34252;-79
2021/12/15 12:00:30;;;;;;;;;;;;;;;15.20;35.71;100895.75;4474379;32;35408;-77
2021/12/15 12:02:58;;;;;;;;;;;;;;;15.29;35.31;100900.47;4478577;32;34649;-75
2021/12/15 12:05:30;;;;;;;;;;;;;;;15.55;34.96;100901.16;4471548;32;32220;-76
2021/12/15 12:07:59;;;;;;;;;;;;;;;15.56;34.93;100895.63;4456923;32;34248;-76
2021/12/15 12:10:32;;;;;;;;;;;;;;;15.27;35.41;100888.91;4453273;32;32488;-75
2021/12/15 12:13:07;;;;;;;;;;;;;;;15.58;34.98;100899.06;4465717;32;34446;-76
2021/12/15 12:15:36;;;;;;;;;;;;;;;15.18;35.98;100889.59;4473638;32;33591;-75
2021/12/15 12:18:08;;;;;;;;;;;;;;;15.26;35.71;100890.75;4452706;32;32702;-76
2021/12/15 12:20:35;;;;;;;;;;;;;;;15.74;34.50;100881.72;4475626;32;33382;-75
2021/12/15 12:23:04;;;;;;;;;;;;;;;15.79;34.82;100891.19;4475604;32;33407;-75
2021/12/15 12:25:35;;;;;;;;;;;;;;;15.25;35.94;100883.66;4471535;32;34371;-75
2021/12/15 12:28:03;;;;;;;;;;;;;;;15.95;34.13;100885.41;4469523;32;35134;-75
2021/12/15 12:30:32;;;;;;;;;;;;;;;15.96;34.09;100887.16;4468635;32;35418;-74
2021/12/15 12:33:00;;;;;;;;;;;;;;;15.89;34.29;100891.31;4467333;32;34427;-75
2021/12/15 12:35:29;;;;;;;;;;;;;;;16.27;33.34;100890.94;4467974;32;34312;-76
2021/12/15 12:37:58;;;;;;;;;;;;;;;16.38;33.49;100883.84;4472322;32;35027;-75
2021/12/15 12:40:30;;;;;;;;;;;;;;;16.36;33.51;100883.09;4458749;32;32984;-75
2021/12/15 12:42:57;;;;;;;;;;;;;;;16.35;33.83;100893.03;4470763;32;34106;-75
2021/12/15 12:45:38;;;;;;;;;;;;;;;16.08;34.19;100896.09;4453697;32;33335;-74
2021/12/15 12:59:35;;;;;;;;;;;;;;;16.69;33.02;100884.87;4467328;32;34110;-76
2021/12/15 13:02:05;;;;;;;;;;;;;;;16.59;33.38;100889.31;4466258;32;32882;-74
2021/12/15 13:04:37;;;;;;;;;;;;;;;16.62;33.37;100883.66;4457004;32;34574;-76
2021/12/15 13:07:04;;;;;;;;;;;;;;;16.83;32.60;100876.53;4467891;32;34588;-76
2021/12/15 13:09:46;;;;;;;;;;;;;;;16.77;32.75;100875.19;4453733;32;33747;-75
2021/12/15 13:12:25;;;;;;;;;;;;;;;16.90;32.03;100871.47;4452526;32;34129;-75
2021/12/15 13:14:54;;;;;;;;;;;;;;;16.87;31.97;100872.56;4456423;32;34529;-76
2021/12/15 13:17:25;;;;;;;;;;;;;;;16.72;32.53;100865.69;4458489;32;34611;-75
2021/12/15 13:19:53;;;;;;;;;;;;;;;16.51;32.65;100871.88;4474200;32;34105;-75
2021/12/15 13:30:47;;;;;;;;;;;;;;;16.90;31.83;100869.62;4466065;32;34309;-78
2021/12/15 13:33:27;;;;;;;;;;;;;;;16.76;31.77;100861.81;4455118;32;33545;-78
2021/12/15 13:35:55;;;;;;;;;;;;;;;16.85;31.77;100868.28;4452106;32;34069;-77
2021/12/15 13:38:30;;;;;;;;;;;;;;;16.68;32.22;100875.06;4466123;32;33308;-76
2021/12/15 13:41:10;;;;;;;;;;;;;;;16.92;31.67;100873.06;4467022;32;34196;-81
2021/12/15 13:43:39;;;;;;;;;;;;;;;16.81;31.70;100875.78;4474702;32;34220;-80
2021/12/15 13:46:22;;;;;;;;;;;;;;;16.71;31.62;100880.22;4450910;32;35324;-77
2021/12/15 13:49:13;;;;;;;;;;;;;;;16.82;31.34;100880.22;4456944;32;33974;-80
2021/12/15 13:51:58;;;;;;;;;;;;;;;16.69;31.93;100883.06;4442509;32;34231;-81
2021/12/15 13:54:32;;;;;;;;;;;;;;;16.45;32.09;100890.44;4468291;32;34337;-77
2021/12/15 13:57:01;;;;;;;;;;;;;;;15.81;33.32;100899.16;4468028;32;34460;-80
2021/12/15 13:59:28;;;;;;;;;;;;;;;16.13;32.52;100899.31;4455840;32;33634;-76
2021/12/15 14:02:14;;;;;;;;;;;;;;;15.87;32.80;100895.97;4463184;32;32964;-76
2021/12/15 14:04:43;;;;;;;;;;;;;;;15.05;34.13;100901.31;4472636;32;34221;-78
2021/12/15 14:07:35;;;;;;;;;;;;;;;15.84;32.70;100898.91;4465126;32;34548;-75
2021/12/15 14:10:12;;;;;;;;;;;;;;;15.74;33.26;100904.16;4460287;32;33280;-78
2021/12/15 14:12:45;;;;;;;;;;;;;;;15.57;33.00;100905.47;4470970;32;32731;-75
2021/12/15 14:15:33;;;;;;;;;;;;;;;15.61;33.30;100911.47;4467772;32;33626;-78
2021/12/15 14:18:03;;;;;;;;;;;;;;;15.41;33.64;100904.03;4457201;32;33356;-76
2021/12/15 14:20:32;;;;;;;;;;;;;;;15.40;33.74;100908.56;4469739;32;32564;-76
2021/12/15 14:23:00;;;;;;;;;;;;;;;15.67;33.00;100904.78;4457465;32;33293;-76
2021/12/15 14:25:28;;;;;;;;;;;;;;;15.38;33.97;100902.47;4452601;32;34463;-77